sensor_id;sensor_type;location;lat;lon;timestamp;temperature;humidity
24152;DHT22;12311;50.866;4.332;2023-04-19T05:23:08;9.90;99.90
24152;DHT22;12311;50.866;4.332;2023-04-19T05:25:35;10.00;99.90
24152;DHT22;12311;50.866;4.332;2023-04-19T05:28:01;10.10;99.90
24152;DHT22;12311;50.866;4.332;2023-04-19T05:30:28;10.20;99.90
24152;DHT22;12311;50.866;4.332;2023-04-19T05:32:53;10.10;99.90
24152;DHT22;12311;50.866;4.332;2023-04-19T05:35:19;10.20;99.90
24152;DHT22;12311;50.866;4.332;2023-04-19T05:37:45;10.30;99.90
24152;DHT22;12311;50.866;4.332;2023-04-19T05:40:11;10.30;99.90
24152;DHT22;12311;50.866;4.332;2023-04-19T05:42:38;10.30;99.90
24152;DHT22;12311;50.866;4.332;2023-04-19T05:45:04;10.40;99.90
24152;DHT22;12311;50.866;4.332;2023-04-19T05:47:31;10.30;99.90
24152;DHT22;12311;50.866;4.332;2023-04-19T05:50:00;10.50;99.90
24152;DHT22;12311;50.866;4.332;2023-04-19T05:52:26;10.60;99.90
24152;DHT22;12311;50.866;4.332;2023-04-19T05:54:52;10.60;99.90
24152;DHT22;12311;50.866;4.332;2023-04-19T05:57:17;10.50;99.90
24152;DHT22;12311;50.866;4.332;2023-04-19T05:59:43;10.60;99.90
24152;DHT22;12311;50.866;4.332;2023-04-19T06:02:09;10.60;99.90
24152;DHT22;12311;50.866;4.332;2023-04-19T06:04:35;10.60;99.90
24152;DHT22;12311;50.866;4.332;2023-04-19T06:07:00;10.70;99.90
24152;DHT22;12311;50.866;4.332;2023-04-19T06:09:26;10.70;99.90
24152;DHT22;12311;50.866;4.332;2023-04-19T06:11:52;10.70;99.90
24152;DHT22;12311;50.866;4.332;2023-04-19T06:14:19;10.80;99.90
24152;DHT22;12311;50.866;4.332;2023-04-19T06:16:45;10.80;99.90
24152;DHT22;12311;50.866;4.332;2023-04-19T06:19:10;10.80;99.90
24152;DHT22;12311;50.866;4.332;2023-04-19T06:21:36;10.80;99.90
24152;DHT22;12311;50.866;4.332;2023-04-19T06:24:02;10.80;99.90
24152;DHT22;12311;50.866;4.332;2023-04-19T06:26:28;10.90;99.90
24152;DHT22;12311;50.866;4.332;2023-04-19T06:28:53;11.10;99.90
24152;DHT22;12311;50.866;4.332;2023-04-19T06:31:19;11.10;99.90
24152;DHT22;12311;50.866;4.332;2023-04-19T06:33:45;11.20;99.90
24152;DHT22;12311;50.866;4.332;2023-04-19T06:36:12;11.30;99.90
24152;DHT22;12311;50.866;4.332;2023-04-19T06:38:38;11.50;99.90
24152;DHT22;12311;50.866;4.332;2023-04-19T06:41:04;11.60;99.90
24152;DHT22;12311;50.866;4.332;2023-04-19T06:43:30;11.70;99.90
24152;DHT22;12311;50.866;4.332;2023-04-19T06:45:59;11.80;99.90
24152;DHT22;12311;50.866;4.332;2023-04-19T06:48:25;11.90;99.90
24152;DHT22;12311;50.866;4.332;2023-04-19T06:50:52;11.90;99.90
24152;DHT22;12311;50.866;4.332;2023-04-19T06:53:18;12.10;99.90
24152;DHT22;12311;50.866;4.332;2023-04-19T06:55:44;12.30;99.90
24152;DHT22;12311;50.866;4.332;2023-04-19T06:58:10;12.30;99.90
24152;DHT22;12311;50.866;4.332;2023-04-19T07:00:36;12.50;99.90
24152;DHT22;12311;50.866;4.332;2023-04-19T07:03:02;12.60;99.90
24152;DHT22;12311;50.866;4.332;2023-04-19T07:05:28;12.60;99.90
24152;DHT22;12311;50.866;4.332;2023-04-19T07:07:57;12.70;99.90
24152;DHT22;12311;50.866;4.332;2023-04-19T07:10:23;12.90;99.90
24152;DHT22;12311;50.866;4.332;2023-04-19T07:12:49;13.00;99.90
24152;DHT22;12311;50.866;4.332;2023-04-19T07:15:15;12.90;99.90
24152;DHT22;12311;50.866;4.332;2023-04-19T07:17:41;12.90;99.90
24152;DHT22;12311;50.866;4.332;2023-04-19T07:20:07;13.00;99.90
24152;DHT22;12311;50.866;4.332;2023-04-19T07:22:33;13.20;99.90
24152;DHT22;12311;50.866;4.332;2023-04-19T07:24:59;13.10;99.90
24152;DHT22;12311;50.866;4.332;2023-04-19T07:27:25;13.30;99.90
24152;DHT22;12311;50.866;4.332;2023-04-19T07:29:51;13.40;99.90
24152;DHT22;12311;50.866;4.332;2023-04-19T07:32:17;13.50;99.90
24152;DHT22;12311;50.866;4.332;2023-04-19T07:34:43;13.50;99.90
24152;DHT22;12311;50.866;4.332;2023-04-19T07:37:10;13.60;99.90
24152;DHT22;12311;50.866;4.332;2023-04-19T07:39:37;13.80;99.90
24152;DHT22;12311;50.866;4.332;2023-04-19T07:42:03;13.70;99.90
24152;DHT22;12311;50.866;4.332;2023-04-19T07:44:28;13.70;99.90
24152;DHT22;12311;50.866;4.332;2023-04-19T07:46:54;13.70;99.90
24152;DHT22;12311;50.866;4.332;2023-04-19T07:49:20;13.70;99.90
24152;DHT22;12311;50.866;4.332;2023-04-19T07:51:46;13.80;99.90
24152;DHT22;12311;50.866;4.332;2023-04-19T07:54:11;13.80;99.90
24152;DHT22;12311;50.866;4.332;2023-04-19T07:56:37;13.80;99.90
24152;DHT22;12311;50.866;4.332;2023-04-19T07:59:03;13.90;99.90
24152;DHT22;12311;50.866;4.332;2023-04-19T08:01:29;13.90;99.90
24152;DHT22;12311;50.866;4.332;2023-04-19T08:03:55;14.00;99.90
24152;DHT22;12311;50.866;4.332;2023-04-19T08:06:21;13.80;99.90
24152;DHT22;12311;50.866;4.332;2023-04-19T08:08:47;13.80;99.90
24152;DHT22;12311;50.866;4.332;2023-04-19T08:11:13;14.00;99.90
24152;DHT22;12311;50.866;4.332;2023-04-19T08:13:38;14.00;99.90
24152;DHT22;12311;50.866;4.332;2023-04-19T08:16:04;14.00;99.90
24152;DHT22;12311;50.866;4.332;2023-04-19T08:18:32;14.10;99.90
24152;DHT22;12311;50.866;4.332;2023-04-19T08:20:58;14.10;99.90
24152;DHT22;12311;50.866;4.332;2023-04-19T08:23:24;14.30;99.90
24152;DHT22;12311;50.866;4.332;2023-04-19T08:25:49;14.30;99.90
24152;DHT22;12311;50.866;4.332;2023-04-19T08:28:16;14.20;99.90
24152;DHT22;12311;50.866;4.332;2023-04-19T08:30:42;14.40;99.90
24152;DHT22;12311;50.866;4.332;2023-04-19T08:33:08;14.50;99.90
24152;DHT22;12311;50.866;4.332;2023-04-19T08:35:37;14.70;99.90
24152;DHT22;12311;50.866;4.332;2023-04-19T08:38:03;14.80;99.90
24152;DHT22;12311;50.866;4.332;2023-04-19T08:40:30;14.80;99.90
24152;DHT22;12311;50.866;4.332;2023-04-19T08:42:56;15.00;99.90
24152;DHT22;12311;50.866;4.332;2023-04-19T08:45:26;15.00;99.90
24152;DHT22;12311;50.866;4.332;2023-04-19T08:47:53;15.00;99.90
24152;DHT22;12311;50.866;4.332;2023-04-19T08:50:20;14.90;99.90
24152;DHT22;12311;50.866;4.332;2023-04-19T08:52:46;14.90;99.90
24152;DHT22;12311;50.866;4.332;2023-04-19T08:55:12;15.00;99.90
24152;DHT22;12311;50.866;4.332;2023-04-19T08:57:39;15.20;99.90
24152;DHT22;12311;50.866;4.332;2023-04-19T09:00:06;15.40;99.90
24152;DHT22;12311;50.866;4.332;2023-04-19T09:02:50;15.40;99.90
24152;DHT22;12311;50.866;4.332;2023-04-19T09:05:17;15.50;99.90
24152;DHT22;12311;50.866;4.332;2023-04-19T09:07:44;15.40;99.90
24152;DHT22;12311;50.866;4.332;2023-04-19T09:10:13;15.60;99.90
24152;DHT22;12311;50.866;4.332;2023-04-19T09:12:39;15.70;99.90
24152;DHT22;12311;50.866;4.332;2023-04-19T09:15:06;15.80;99.90
24152;DHT22;12311;50.866;4.332;2023-04-19T09:17:34;15.90;99.90
24152;DHT22;12311;50.866;4.332;2023-04-19T09:20:00;16.10;99.90
24152;DHT22;12311;50.866;4.332;2023-04-19T09:22:26;16.20;99.90
24152;DHT22;12311;50.866;4.332;2023-04-19T09:24:52;16.30;99.90
24152;DHT22;12311;50.866;4.332;2023-04-19T09:27:32;16.20;99.90
24152;DHT22;12311;50.866;4.332;2023-04-19T09:30:00;16.30;99.90
24152;DHT22;12311;50.866;4.332;2023-04-19T09:32:26;16.40;99.90
24152;DHT22;12311;50.866;4.332;2023-04-19T09:34:57;16.60;99.90
24152;DHT22;12311;50.866;4.332;2023-04-19T09:37:23;16.70;99.90
24152;DHT22;12311;50.866;4.332;2023-04-19T09:39:49;16.80;99.90
24152;DHT22;12311;50.866;4.332;2023-04-19T09:42:16;16.90;99.90
24152;DHT22;12311;50.866;4.332;2023-04-19T09:45:00;17.10;99.90
24152;DHT22;12311;50.866;4.332;2023-04-19T09:47:27;17.50;99.90
24152;DHT22;12311;50.866;4.332;2023-04-19T09:50:07;17.50;99.90
24152;DHT22;12311;50.866;4.332;2023-04-19T09:52:34;17.40;99.90
24152;DHT22;12311;50.866;4.332;2023-04-19T09:55:01;17.50;99.90
24152;DHT22;12311;50.866;4.332;2023-04-19T09:57:29;17.60;99.90
24152;DHT22;12311;50.866;4.332;2023-04-19T09:59:57;17.70;99.90
24152;DHT22;12311;50.866;4.332;2023-04-19T10:02:23;17.70;99.90
24152;DHT22;12311;50.866;4.332;2023-04-19T10:04:51;17.80;99.90
24152;DHT22;12311;50.866;4.332;2023-04-19T10:07:17;17.70;99.90
24152;DHT22;12311;50.866;4.332;2023-04-19T10:09:45;18.10;99.90
24152;DHT22;12311;50.866;4.332;2023-04-19T10:12:14;18.10;99.90
24152;DHT22;12311;50.866;4.332;2023-04-19T10:14:41;18.40;99.90
24152;DHT22;12311;50.866;4.332;2023-04-19T10:17:07;18.40;99.90
24152;DHT22;12311;50.866;4.332;2023-04-19T10:19:34;18.20;99.90
24152;DHT22;12311;50.866;4.332;2023-04-19T10:22:02;18.40;99.90
24152;DHT22;12311;50.866;4.332;2023-04-19T10:24:32;18.60;99.90
24152;DHT22;12311;50.866;4.332;2023-04-19T10:27:08;18.40;99.90
24152;DHT22;12311;50.866;4.332;2023-04-19T10:30:00;18.60;99.90
24152;DHT22;12311;50.866;4.332;2023-04-19T10:32:42;18.80;99.90
24152;DHT22;12311;50.866;4.332;2023-04-19T10:35:25;19.10;99.90
24152;DHT22;12311;50.866;4.332;2023-04-19T10:38:10;19.10;99.90
24152;DHT22;12311;50.866;4.332;2023-04-19T10:40:58;18.90;99.90
24152;DHT22;12311;50.866;4.332;2023-04-19T10:43:29;18.70;99.90
24152;DHT22;12311;50.866;4.332;2023-04-19T10:46:00;18.90;99.90
24152;DHT22;12311;50.866;4.332;2023-04-19T10:48:30;19.40;99.90
24152;DHT22;12311;50.866;4.332;2023-04-19T10:51:02;19.80;99.90
24152;DHT22;12311;50.866;4.332;2023-04-19T10:53:49;19.90;99.90
24152;DHT22;12311;50.866;4.332;2023-04-19T10:59:29;20.00;99.90
24152;DHT22;12311;50.866;4.332;2023-04-19T11:01:57;20.00;99.90
24152;DHT22;12311;50.866;4.332;2023-04-19T11:07:03;19.70;99.90
24152;DHT22;12311;50.866;4.332;2023-04-19T11:09:36;20.30;99.90
24152;DHT22;12311;50.866;4.332;2023-04-19T11:12:09;20.50;99.90
24152;DHT22;12311;50.866;4.332;2023-04-19T11:14:39;20.50;99.90
24152;DHT22;12311;50.866;4.332;2023-04-19T11:17:18;20.40;99.90
24152;DHT22;12311;50.866;4.332;2023-04-19T11:19:59;20.00;99.90
24152;DHT22;12311;50.866;4.332;2023-04-19T11:22:33;19.80;99.90
24152;DHT22;12311;50.866;4.332;2023-04-19T11:25:17;20.50;99.90
24152;DHT22;12311;50.866;4.332;2023-04-19T11:27:45;20.40;99.90
24152;DHT22;12311;50.866;4.332;2023-04-19T11:30:13;20.40;99.90
24152;DHT22;12311;50.866;4.332;2023-04-19T11:32:50;20.40;99.90
24152;DHT22;12311;50.866;4.332;2023-04-19T11:35:20;19.70;99.90
24152;DHT22;12311;50.866;4.332;2023-04-19T11:37:46;19.80;99.90
24152;DHT22;12311;50.866;4.332;2023-04-19T11:40:14;19.90;99.90
24152;DHT22;12311;50.866;4.332;2023-04-19T11:42:41;19.50;99.90
24152;DHT22;12311;50.866;4.332;2023-04-19T11:45:08;19.50;99.90
24152;DHT22;12311;50.866;4.332;2023-04-19T11:47:45;19.30;99.90
24152;DHT22;12311;50.866;4.332;2023-04-19T11:50:40;19.70;99.90
24152;DHT22;12311;50.866;4.332;2023-04-19T11:53:42;20.40;99.90
24152;DHT22;12311;50.866;4.332;2023-04-19T11:56:06;20.70;99.90
24152;DHT22;12311;50.866;4.332;2023-04-19T11:58:43;21.00;99.90
24152;DHT22;12311;50.866;4.332;2023-04-19T12:01:14;21.40;99.90
24152;DHT22;12311;50.866;4.332;2023-04-19T12:03:44;21.80;99.90
24152;DHT22;12311;50.866;4.332;2023-04-19T12:06:13;22.00;99.90
24152;DHT22;12311;50.866;4.332;2023-04-19T12:08:47;22.20;99.90
24152;DHT22;12311;50.866;4.332;2023-04-19T12:11:13;22.30;99.10
24152;DHT22;12311;50.866;4.332;2023-04-19T12:13:40;22.50;96.80
24152;DHT22;12311;50.866;4.332;2023-04-19T12:16:07;22.70;96.40
24152;DHT22;12311;50.866;4.332;2023-04-19T12:18:49;22.90;95.00
24152;DHT22;12311;50.866;4.332;2023-04-19T12:21:29;22.80;93.30
24152;DHT22;12311;50.866;4.332;2023-04-19T12:24:00;22.40;93.80
24152;DHT22;12311;50.866;4.332;2023-04-19T12:26:27;22.90;94.60
24152;DHT22;12311;50.866;4.332;2023-04-19T12:28:57;23.40;91.70
24152;DHT22;12311;50.866;4.332;2023-04-19T12:31:23;22.90;90.90
24152;DHT22;12311;50.866;4.332;2023-04-19T12:33:49;23.40;90.50
24152;DHT22;12311;50.866;4.332;2023-04-19T12:36:15;23.90;87.80
24152;DHT22;12311;50.866;4.332;2023-04-19T12:38:41;23.90;83.20
24152;DHT22;12311;50.866;4.332;2023-04-19T12:41:07;24.00;80.00
24152;DHT22;12311;50.866;4.332;2023-04-19T12:43:33;23.80;81.20
24152;DHT22;12311;50.866;4.332;2023-04-19T12:45:59;23.60;76.30
24152;DHT22;12311;50.866;4.332;2023-04-19T12:48:25;23.80;77.00
24152;DHT22;12311;50.866;4.332;2023-04-19T12:50:51;23.70;73.90
24152;DHT22;12311;50.866;4.332;2023-04-19T12:53:17;23.60;73.30
24152;DHT22;12311;50.866;4.332;2023-04-19T12:55:43;23.30;72.20
24152;DHT22;12311;50.866;4.332;2023-04-19T12:58:13;23.10;71.30
24152;DHT22;12311;50.866;4.332;2023-04-19T13:00:39;23.40;70.30
24152;DHT22;12311;50.866;4.332;2023-04-19T13:03:05;23.70;69.50
24152;DHT22;12311;50.866;4.332;2023-04-19T13:05:31;23.20;68.00
24152;DHT22;12311;50.866;4.332;2023-04-19T13:07:56;23.40;68.10
24152;DHT22;12311;50.866;4.332;2023-04-19T13:10:22;23.10;65.40
24152;DHT22;12311;50.866;4.332;2023-04-19T13:12:48;23.00;66.00
24152;DHT22;12311;50.866;4.332;2023-04-19T13:15:14;23.10;63.60
24152;DHT22;12311;50.866;4.332;2023-04-19T13:17:40;23.20;62.20
24152;DHT22;12311;50.866;4.332;2023-04-19T13:20:06;23.80;62.20
24152;DHT22;12311;50.866;4.332;2023-04-19T13:22:32;23.90;60.20
24152;DHT22;12311;50.866;4.332;2023-04-19T13:24:57;23.50;59.10
24152;DHT22;12311;50.866;4.332;2023-04-19T13:27:23;23.00;58.60
24152;DHT22;12311;50.866;4.332;2023-04-19T13:29:49;22.70;59.50
24152;DHT22;12311;50.866;4.332;2023-04-19T13:32:15;23.20;59.30
24152;DHT22;12311;50.866;4.332;2023-04-19T13:34:40;23.60;57.70
24152;DHT22;12311;50.866;4.332;2023-04-19T13:37:06;23.50;57.20
24152;DHT22;12311;50.866;4.332;2023-04-19T13:39:33;23.00;56.80
24152;DHT22;12311;50.866;4.332;2023-04-19T13:41:59;23.00;54.90
24152;DHT22;12311;50.866;4.332;2023-04-19T13:44:27;22.80;54.50
24152;DHT22;12311;50.866;4.332;2023-04-19T13:46:52;22.50;54.60
24152;DHT22;12311;50.866;4.332;2023-04-19T13:49:21;23.00;54.50
24152;DHT22;12311;50.866;4.332;2023-04-19T13:51:47;23.50;52.80
24152;DHT22;12311;50.866;4.332;2023-04-19T13:54:12;23.60;51.00
24152;DHT22;12311;50.866;4.332;2023-04-19T13:56:38;23.80;50.10
24152;DHT22;12311;50.866;4.332;2023-04-19T13:59:04;24.10;49.40
24152;DHT22;12311;50.866;4.332;2023-04-19T14:01:29;24.20;49.00
24152;DHT22;12311;50.866;4.332;2023-04-19T14:03:55;24.50;48.10
24152;DHT22;12311;50.866;4.332;2023-04-19T14:06:21;24.60;48.00
24152;DHT22;12311;50.866;4.332;2023-04-19T14:08:47;24.10;47.50
24152;DHT22;12311;50.866;4.332;2023-04-19T14:11:12;24.20;46.40
24152;DHT22;12311;50.866;4.332;2023-04-19T14:13:38;24.40;46.00
24152;DHT22;12311;50.866;4.332;2023-04-19T14:16:04;24.30;46.10
24152;DHT22;12311;50.866;4.332;2023-04-19T14:18:30;24.60;45.10
24152;DHT22;12311;50.866;4.332;2023-04-19T14:20:55;25.10;44.10
24152;DHT22;12311;50.866;4.332;2023-04-19T14:23:21;25.00;43.80
24152;DHT22;12311;50.866;4.332;2023-04-19T14:25:47;24.60;44.10
24152;DHT22;12311;50.866;4.332;2023-04-19T14:28:12;24.40;44.30
24152;DHT22;12311;50.866;4.332;2023-04-19T14:30:38;24.30;44.10
24152;DHT22;12311;50.866;4.332;2023-04-19T14:33:04;24.40;43.90
24152;DHT22;12311;50.866;4.332;2023-04-19T14:35:30;24.40;43.60
24152;DHT22;12311;50.866;4.332;2023-04-19T14:37:56;23.90;43.70
24152;DHT22;12311;50.866;4.332;2023-04-19T14:40:22;23.60;43.60
24152;DHT22;12311;50.866;4.332;2023-04-19T14:42:48;23.90;43.00
24152;DHT22;12311;50.866;4.332;2023-04-19T14:45:13;24.40;42.20
24152;DHT22;12311;50.866;4.332;2023-04-19T14:47:39;24.80;41.40
24152;DHT22;12311;50.866;4.332;2023-04-19T14:50:06;25.10;40.40
24152;DHT22;12311;50.866;4.332;2023-04-19T14:52:31;25.10;38.10
24152;DHT22;12311;50.866;4.332;2023-04-19T14:54:57;24.60;40.10
24152;DHT22;12311;50.866;4.332;2023-04-19T14:57:25;25.40;40.60
24152;DHT22;12311;50.866;4.332;2023-04-19T14:59:57;25.70;39.80
24152;DHT22;12311;50.866;4.332;2023-04-19T15:02:23;25.50;39.80
24152;DHT22;12311;50.866;4.332;2023-04-19T15:04:49;25.20;39.90
24152;DHT22;12311;50.866;4.332;2023-04-19T15:07:15;25.40;39.70
24152;DHT22;12311;50.866;4.332;2023-04-19T15:09:41;25.20;39.60
24152;DHT22;12311;50.866;4.332;2023-04-19T15:12:07;25.30;39.90
24152;DHT22;12311;50.866;4.332;2023-04-19T15:14:33;25.10;39.50
24152;DHT22;12311;50.866;4.332;2023-04-19T15:16:59;24.80;39.10
24152;DHT22;12311;50.866;4.332;2023-04-19T15:19:24;24.40;39.00
24152;DHT22;12311;50.866;4.332;2023-04-19T15:21:50;23.80;39.80
24152;DHT22;12311;50.866;4.332;2023-04-19T15:24:16;23.50;40.20
24152;DHT22;12311;50.866;4.332;2023-04-19T15:26:41;23.70;40.30
24152;DHT22;12311;50.866;4.332;2023-04-19T15:29:07;24.10;39.50
24152;DHT22;12311;50.866;4.332;2023-04-19T15:31:33;24.50;39.20
24152;DHT22;12311;50.866;4.332;2023-04-19T15:34:02;24.60;38.90
24152;DHT22;12311;50.866;4.332;2023-04-19T15:36:28;24.20;38.10
24152;DHT22;12311;50.866;4.332;2023-04-19T15:38:54;23.30;38.30
24152;DHT22;12311;50.866;4.332;2023-04-19T15:41:20;23.30;38.50
24152;DHT22;12311;50.866;4.332;2023-04-19T15:43:45;24.50;38.80
24152;DHT22;12311;50.866;4.332;2023-04-19T15:46:12;24.50;36.80
24152;DHT22;12311;50.866;4.332;2023-04-19T15:48:38;24.80;36.50
24152;DHT22;12311;50.866;4.332;2023-04-19T15:51:04;24.60;35.80
24152;DHT22;12311;50.866;4.332;2023-04-19T15:53:30;24.50;36.80
24152;DHT22;12311;50.866;4.332;2023-04-19T15:55:56;24.20;37.00
24152;DHT22;12311;50.866;4.332;2023-04-19T15:58:22;23.90;37.40
24152;DHT22;12311;50.866;4.332;2023-04-19T16:00:48;23.90;37.20
24152;DHT22;12311;50.866;4.332;2023-04-19T16:03:14;24.20;37.10
24152;DHT22;12311;50.866;4.332;2023-04-19T16:05:40;24.00;36.50
24152;DHT22;12311;50.866;4.332;2023-04-19T16:08:07;24.40;36.20
24152;DHT22;12311;50.866;4.332;2023-04-19T16:10:34;24.80;35.50
24152;DHT22;12311;50.866;4.332;2023-04-19T16:13:02;24.80;35.20
24152;DHT22;12311;50.866;4.332;2023-04-19T16:15:28;25.30;35.20
24152;DHT22;12311;50.866;4.332;2023-04-19T16:17:54;25.00;35.50
24152;DHT22;12311;50.866;4.332;2023-04-19T16:20:19;24.40;35.10
24152;DHT22;12311;50.866;4.332;2023-04-19T16:22:46;24.30;35.50
24152;DHT22;12311;50.866;4.332;2023-04-19T16:25:11;24.30;35.90
24152;DHT22;12311;50.866;4.332;2023-04-19T16:27:41;24.60;36.00
24152;DHT22;12311;50.866;4.332;2023-04-19T16:30:08;24.50;36.40
24152;DHT22;12311;50.866;4.332;2023-04-19T16:32:34;23.70;37.90
24152;DHT22;12311;50.866;4.332;2023-04-19T16:35:00;23.50;38.40
24152;DHT22;12311;50.866;4.332;2023-04-19T16:37:26;22.80;38.90
24152;DHT22;12311;50.866;4.332;2023-04-19T16:39:52;23.30;39.60
24152;DHT22;12311;50.866;4.332;2023-04-19T16:42:17;23.50;38.90
24152;DHT22;12311;50.866;4.332;2023-04-19T16:44:43;23.50;37.40
24152;DHT22;12311;50.866;4.332;2023-04-19T16:47:09;23.40;37.70
24152;DHT22;12311;50.866;4.332;2023-04-19T16:49:34;23.00;38.00
24152;DHT22;12311;50.866;4.332;2023-04-19T16:52:00;22.70;38.20
24152;DHT22;12311;50.866;4.332;2023-04-19T16:54:26;22.80;38.50
24152;DHT22;12311;50.866;4.332;2023-04-19T16:56:51;23.20;38.60
24152;DHT22;12311;50.866;4.332;2023-04-19T16:59:17;23.10;38.30
24152;DHT22;12311;50.866;4.332;2023-04-19T17:01:43;23.10;38.40
24152;DHT22;12311;50.866;4.332;2023-04-19T17:04:08;22.80;39.40
24152;DHT22;12311;50.866;4.332;2023-04-19T17:06:34;23.00;39.10
24152;DHT22;12311;50.866;4.332;2023-04-19T17:09:00;23.50;39.30
24152;DHT22;12311;50.866;4.332;2023-04-19T17:11:29;23.30;38.90
24152;DHT22;12311;50.866;4.332;2023-04-19T17:13:57;23.00;39.00
24152;DHT22;12311;50.866;4.332;2023-04-19T17:16:23;22.20;39.30
24152;DHT22;12311;50.866;4.332;2023-04-19T17:18:48;22.10;40.20
24152;DHT22;12311;50.866;4.332;2023-04-19T17:21:14;22.00;40.80
24152;DHT22;12311;50.866;4.332;2023-04-19T17:23:41;22.20;40.50
24152;DHT22;12311;50.866;4.332;2023-04-19T17:26:08;22.20;40.50
24152;DHT22;12311;50.866;4.332;2023-04-19T17:28:35;22.50;40.40
24152;DHT22;12311;50.866;4.332;2023-04-19T17:31:01;22.50;39.90
24152;DHT22;12311;50.866;4.332;2023-04-19T17:33:26;21.90;40.60
24152;DHT22;12311;50.866;4.332;2023-04-19T17:35:52;21.80;40.90
24152;DHT22;12311;50.866;4.332;2023-04-19T17:38:18;21.70;41.50
24152;DHT22;12311;50.866;4.332;2023-04-19T17:40:44;21.50;41.20
24152;DHT22;12311;50.866;4.332;2023-04-19T17:43:09;21.30;42.10
24152;DHT22;12311;50.866;4.332;2023-04-19T17:45:35;21.10;42.40
24152;DHT22;12311;50.866;4.332;2023-04-19T17:48:01;21.00;42.70
24152;DHT22;12311;50.866;4.332;2023-04-19T17:50:27;20.80;42.90
24152;DHT22;12311;50.866;4.332;2023-04-19T17:52:54;20.60;43.30
24152;DHT22;12311;50.866;4.332;2023-04-19T17:55:20;20.60;43.70
24152;DHT22;12311;50.866;4.332;2023-04-19T17:57:46;20.60;44.20
24152;DHT22;12311;50.866;4.332;2023-04-19T18:00:12;20.70;43.90
24152;DHT22;12311;50.866;4.332;2023-04-19T18:02:38;20.40;44.30
24152;DHT22;12311;50.866;4.332;2023-04-19T18:05:05;20.30;44.80
24152;DHT22;12311;50.866;4.332;2023-04-19T18:07:33;20.10;45.50
24152;DHT22;12311;50.866;4.332;2023-04-19T18:09:59;19.60;45.90
24152;DHT22;12311;50.866;4.332;2023-04-19T18:12:25;19.40;46.80
24152;DHT22;12311;50.866;4.332;2023-04-19T18:14:50;18.70;47.90
24152;DHT22;12311;50.866;4.332;2023-04-19T18:17:16;18.10;49.00
24152;DHT22;12311;50.866;4.332;2023-04-19T18:19:42;17.60;50.10
24152;DHT22;12311;50.866;4.332;2023-04-19T18:22:07;17.10;51.30
24152;DHT22;12311;50.866;4.332;2023-04-19T18:24:33;16.70;52.50
24152;DHT22;12311;50.866;4.332;2023-04-19T18:26:59;16.30;53.40
24152;DHT22;12311;50.866;4.332;2023-04-19T18:29:26;15.80;54.60
24152;DHT22;12311;50.866;4.332;2023-04-19T18:31:51;15.50;55.50
24152;DHT22;12311;50.866;4.332;2023-04-19T18:34:18;15.40;56.30
24152;DHT22;12311;50.866;4.332;2023-04-19T18:36:43;15.20;56.90
24152;DHT22;12311;50.866;4.332;2023-04-19T18:39:09;14.90;57.80
24152;DHT22;12311;50.866;4.332;2023-04-19T18:41:37;14.70;58.60
24152;DHT22;12311;50.866;4.332;2023-04-19T18:44:03;14.60;59.10
24152;DHT22;12311;50.866;4.332;2023-04-19T18:46:28;14.50;60.00
24152;DHT22;12311;50.866;4.332;2023-04-19T18:48:54;14.30;60.60
24152;DHT22;12311;50.866;4.332;2023-04-19T18:51:20;14.30;61.00
24152;DHT22;12311;50.866;4.332;2023-04-19T18:53:46;14.10;61.80
24152;DHT22;12311;50.866;4.332;2023-04-19T18:56:13;14.10;62.70
24152;DHT22;12311;50.866;4.332;2023-04-19T18:58:39;14.00;63.20
24152;DHT22;12311;50.866;4.332;2023-04-19T19:01:04;13.90;63.90
24152;DHT22;12311;50.866;4.332;2023-04-19T19:03:30;13.80;64.70
24152;DHT22;12311;50.866;4.332;2023-04-19T19:05:56;13.70;65.10
24152;DHT22;12311;50.866;4.332;2023-04-19T19:08:22;13.70;65.80
24152;DHT22;12311;50.866;4.332;2023-04-19T19:10:48;13.70;66.00
24152;DHT22;12311;50.866;4.332;2023-04-19T19:13:14;13.60;66.50
24152;DHT22;12311;50.866;4.332;2023-04-19T19:15:40;13.60;67.00
24152;DHT22;12311;50.866;4.332;2023-04-19T19:18:06;13.40;67.60
24152;DHT22;12311;50.866;4.332;2023-04-19T19:20:32;13.40;68.70
24152;DHT22;12311;50.866;4.332;2023-04-19T19:22:58;13.40;68.90
24152;DHT22;12311;50.866;4.332;2023-04-19T19:25:24;13.40;69.40
24152;DHT22;12311;50.866;4.332;2023-04-19T19:27:50;13.30;70.20
24152;DHT22;12311;50.866;4.332;2023-04-19T19:30:21;13.20;70.90
24152;DHT22;12311;50.866;4.332;2023-04-19T19:32:47;13.10;71.90
24152;DHT22;12311;50.866;4.332;2023-04-19T19:35:13;13.00;73.00
24152;DHT22;12311;50.866;4.332;2023-04-19T19:37:39;13.00;73.80
24152;DHT22;12311;50.866;4.332;2023-04-19T19:40:05;12.90;74.70
24152;DHT22;12311;50.866;4.332;2023-04-19T19:42:36;12.80;76.10
24152;DHT22;12311;50.866;4.332;2023-04-19T19:45:05;12.80;77.10
24152;DHT22;12311;50.866;4.332;2023-04-19T19:47:31;12.80;77.90
24152;DHT22;12311;50.866;4.332;2023-04-19T19:50:03;12.70;79.00
24152;DHT22;12311;50.866;4.332;2023-04-19T19:52:30;12.60;80.20
24152;DHT22;12311;50.866;4.332;2023-04-19T19:54:56;12.60;81.40
